createdAt,value
2019-01-28T00:00:23.866Z,1.84
2019-01-28T00:02:30.666Z,1.83
2019-01-28T00:04:36.911Z,1.80
2019-01-28T00:06:43.305Z,1.77
2019-01-28T00:08:49.725Z,1.76
2019-01-28T00:10:58.566Z,1.73
2019-01-28T00:13:04.865Z,1.73
2019-01-28T00:15:13.006Z,1.72
2019-01-28T00:17:19.107Z,1.72
2019-01-28T00:19:25.748Z,1.73
2019-01-28T00:21:32.425Z,1.75
2019-01-28T00:23:39.347Z,1.74
2019-01-28T00:25:45.986Z,1.76
2019-01-28T00:27:53.866Z,1.76
2019-01-28T00:29:59.885Z,1.77
2019-01-28T00:32:06.455Z,1.78
2019-01-28T00:34:12.867Z,1.80
2019-01-28T00:36:19.167Z,1.81
2019-01-28T00:38:25.845Z,1.81
2019-01-28T00:40:33.126Z,1.81
2019-01-28T00:42:39.705Z,1.82
2019-01-28T00:44:46.028Z,1.82
2019-01-28T00:46:53.806Z,1.84
2019-01-28T00:49:01.485Z,1.85
2019-01-28T00:51:07.725Z,1.85
2019-01-28T00:53:14.665Z,1.85
2019-01-28T00:55:21.925Z,1.84
2019-01-28T00:57:29.285Z,1.83
2019-01-28T00:59:35.465Z,1.81
2019-01-28T01:01:41.826Z,1.82
2019-01-28T01:03:48.073Z,1.84
2019-01-28T01:05:54.545Z,1.84
2019-01-28T01:08:00.706Z,1.83
2019-01-28T01:10:12.026Z,1.82
2019-01-28T01:12:18.445Z,1.83
2019-01-28T01:14:24.614Z,1.83
2019-01-28T01:16:31.105Z,1.84
2019-01-28T01:18:37.594Z,1.84
2019-01-28T01:20:43.946Z,1.83
2019-01-28T01:22:50.788Z,1.83
2019-01-28T01:24:59.305Z,1.84
2019-01-28T01:27:05.846Z,1.82
2019-01-28T01:29:12.053Z,1.81
2019-01-28T01:31:18.886Z,1.79
2019-01-28T01:33:25.145Z,1.79
2019-01-28T01:35:33.513Z,1.78
2019-01-28T01:37:40.226Z,1.78
2019-01-28T01:39:47.964Z,1.77
2019-01-28T01:41:54.365Z,1.74
2019-01-28T01:44:00.625Z,1.70
2019-01-28T01:46:08.486Z,1.66
2019-01-28T01:48:14.927Z,1.59
2019-01-28T01:50:22.850Z,1.54
2019-01-28T01:52:30.065Z,1.47
2019-01-28T01:54:36.510Z,1.41
2019-01-28T01:56:43.205Z,1.33
2019-01-28T01:58:49.647Z,1.25
2019-01-28T02:00:56.105Z,1.18
2019-01-28T02:03:03.825Z,1.10
2019-01-28T02:05:10.826Z,1.04
2019-01-28T02:07:17.126Z,0.96
2019-01-28T02:09:23.606Z,0.90
2019-01-28T02:11:30.065Z,0.85
2019-01-28T02:13:36.566Z,0.78
2019-01-28T02:15:44.345Z,0.73
2019-01-28T02:17:51.345Z,0.73
2019-01-28T02:19:57.727Z,0.71
2019-01-28T02:22:04.006Z,0.68
2019-01-28T02:24:10.186Z,0.64
2019-01-28T02:26:16.506Z,0.64
2019-01-28T02:28:22.805Z,0.59
2019-01-28T02:30:29.155Z,0.58
2019-01-28T02:32:35.366Z,0.55
2019-01-28T02:34:41.565Z,0.52
2019-01-28T02:36:50.087Z,0.51
2019-01-28T02:38:56.927Z,0.52
2019-01-28T02:41:03.147Z,0.52
2019-01-28T02:43:10.525Z,0.51
2019-01-28T02:45:18.106Z,0.53
2019-01-28T02:47:24.554Z,0.56
2019-01-28T02:49:31.686Z,0.60
2019-01-28T02:51:38.731Z,0.63
2019-01-28T02:53:46.166Z,0.63
2019-01-28T02:55:54.253Z,0.63
2019-01-28T02:58:00.666Z,0.62
2019-01-28T03:00:20.105Z,0.60
2019-01-28T03:02:26.425Z,0.59
2019-01-28T03:04:34.246Z,0.62
2019-01-28T03:06:40.786Z,0.70
2019-01-28T03:08:47.105Z,0.76
2019-01-28T03:10:54.687Z,0.80
2019-01-28T03:13:03.625Z,0.85
2019-01-28T03:15:11.145Z,0.91
2019-01-28T03:17:17.385Z,0.95
2019-01-28T03:19:23.774Z,1.03
2019-01-28T03:21:30.385Z,1.11
2019-01-28T03:23:37.006Z,1.16
2019-01-28T03:25:43.267Z,1.22
2019-01-28T03:27:49.535Z,1.27
2019-01-28T03:29:56.165Z,1.29
2019-01-28T03:32:02.705Z,1.34
2019-01-28T03:34:09.387Z,1.36
2019-01-28T03:36:16.108Z,1.38
2019-01-28T03:38:22.625Z,1.37
2019-01-28T03:40:29.067Z,1.36
2019-01-28T03:42:35.987Z,1.35
2019-01-28T03:44:42.257Z,1.34
2019-01-28T03:46:48.527Z,1.33
2019-01-28T03:48:54.873Z,1.34
2019-01-28T03:51:01.129Z,1.37
2019-01-28T03:53:10.486Z,1.37
2019-01-28T03:55:16.848Z,1.40
2019-01-28T03:57:23.289Z,1.40
2019-01-28T03:59:29.927Z,1.40
2019-01-28T04:01:37.165Z,1.43
2019-01-28T04:03:43.845Z,1.43
2019-01-28T04:05:50.065Z,1.44
2019-01-28T04:07:56.565Z,1.45
2019-01-28T04:10:02.865Z,1.46
2019-01-28T04:12:09.585Z,1.44
2019-01-28T04:14:16.865Z,1.46
2019-01-28T04:16:23.208Z,1.48
2019-01-28T04:18:29.654Z,1.49
2019-01-28T04:20:36.265Z,1.51
2019-01-28T04:22:42.913Z,1.54
2019-01-28T04:24:49.486Z,1.54
2019-01-28T04:26:56.766Z,1.54
2019-01-28T04:29:03.133Z,1.52
2019-01-28T04:31:09.706Z,1.48
2019-01-28T04:33:16.301Z,1.46
2019-01-28T04:35:22.746Z,1.43
2019-01-28T04:37:29.147Z,1.40
2019-01-28T04:39:37.266Z,1.36
2019-01-28T04:41:43.527Z,1.34
2019-01-28T04:43:50.025Z,1.31
2019-01-28T04:45:56.352Z,1.29
2019-01-28T04:48:02.746Z,1.28
2019-01-28T04:50:13.105Z,1.28
2019-01-28T04:52:20.453Z,1.30
2019-01-28T04:54:27.534Z,1.32
2019-01-28T04:56:34.146Z,1.35
2019-01-28T04:58:41.265Z,1.34
2019-01-28T05:00:47.490Z,1.36
2019-01-28T05:02:53.745Z,1.37
2019-01-28T05:05:01.288Z,1.38
2019-01-28T05:07:07.935Z,1.37
2019-01-28T05:09:14.467Z,1.40
2019-01-28T05:11:20.981Z,1.41
2019-01-28T05:13:27.225Z,1.43
2019-01-28T05:15:33.886Z,1.44
2019-01-28T05:17:40.007Z,1.45
2019-01-28T05:19:46.545Z,1.44
2019-01-28T05:21:52.647Z,1.45
2019-01-28T05:23:59.226Z,1.47
2019-01-28T05:26:05.849Z,1.45
2019-01-28T05:28:13.045Z,1.47
2019-01-28T05:30:25.045Z,1.45
2019-01-28T05:32:31.425Z,1.45
2019-01-28T05:34:37.827Z,1.43
2019-01-28T05:36:45.493Z,1.45
2019-01-28T05:38:51.746Z,1.43
2019-01-28T05:40:58.246Z,1.43
2019-01-28T05:43:04.961Z,1.43
2019-01-28T05:45:17.866Z,1.43
2019-01-28T05:47:24.605Z,1.42
2019-01-28T05:49:31.657Z,1.42
2019-01-28T05:51:38.513Z,1.42
2019-01-28T05:53:44.967Z,1.40
2019-01-28T05:55:52.306Z,1.40
2019-01-28T05:57:58.885Z,1.40
2019-01-28T06:00:12.646Z,1.39
2019-01-28T06:02:19.266Z,1.40
2019-01-28T06:04:25.810Z,1.39
2019-01-28T06:06:32.506Z,1.35
2019-01-28T06:08:39.106Z,1.36
2019-01-28T06:10:45.926Z,1.34
2019-01-28T06:12:52.186Z,1.35
2019-01-28T06:14:58.506Z,1.34
2019-01-28T06:17:06.286Z,1.34
2019-01-28T06:19:14.905Z,1.35
2019-01-28T06:21:25.228Z,1.32
2019-01-28T06:23:33.565Z,1.32
2019-01-28T06:25:40.087Z,1.31
2019-01-28T06:27:46.448Z,1.30
2019-01-28T06:29:53.185Z,1.31
2019-01-28T06:32:01.526Z,1.31
2019-01-28T06:34:07.627Z,1.31
2019-01-28T06:36:14.186Z,1.32
2019-01-28T06:38:22.479Z,1.33
2019-01-28T06:40:35.385Z,1.36
2019-01-28T06:42:41.690Z,1.37
2019-01-28T06:44:47.867Z,1.36
2019-01-28T06:46:54.369Z,1.37
2019-01-28T06:49:00.767Z,1.39
2019-01-28T06:51:07.247Z,1.39
2019-01-28T06:53:13.881Z,1.38
2019-01-28T06:55:20.985Z,1.37
2019-01-28T06:57:28.945Z,1.38
2019-01-28T06:59:36.241Z,1.34
2019-01-28T07:01:43.017Z,1.33
2019-01-28T07:03:49.885Z,1.34
2019-01-28T07:05:55.986Z,1.36
2019-01-28T07:08:02.286Z,1.35
2019-01-28T07:10:11.166Z,1.49
2019-01-28T07:12:18.845Z,1.53
2019-01-28T07:14:25.342Z,2.17
2019-01-28T07:16:31.385Z,2.13
2019-01-28T07:18:39.886Z,2.07
2019-01-28T07:20:46.405Z,2.02
2019-01-28T07:22:53.846Z,2.05
2019-01-28T07:25:00.385Z,1.98
2019-01-28T07:27:08.567Z,1.91
2019-01-28T07:29:15.052Z,2.07
2019-01-28T07:31:21.606Z,2.07
2019-01-28T07:33:30.585Z,1.95
2019-01-28T07:35:37.254Z,1.86
2019-01-28T07:37:43.873Z,2.05
2019-01-28T07:39:50.248Z,1.93
2019-01-28T07:41:57.366Z,1.87
2019-01-28T07:44:04.325Z,1.83
2019-01-28T07:46:11.927Z,2.00
2019-01-28T07:48:19.845Z,2.14
2019-01-28T07:50:26.329Z,2.11
2019-01-28T07:52:32.894Z,2.04
2019-01-28T07:54:39.375Z,1.96
2019-01-28T07:56:51.865Z,1.94
2019-01-28T07:58:58.426Z,1.88
2019-01-28T08:01:04.789Z,1.77
2019-01-28T08:03:11.346Z,1.72
2019-01-28T08:05:19.645Z,1.70
2019-01-28T08:07:26.175Z,1.63
2019-01-28T08:09:32.686Z,1.64
2019-01-28T08:11:39.565Z,1.60
2019-01-28T08:13:46.126Z,1.64
2019-01-28T08:15:52.666Z,1.64
2019-01-28T08:17:59.386Z,1.64
2019-01-28T08:20:11.933Z,1.65
2019-01-28T08:22:18.805Z,1.65
2019-01-28T08:24:26.945Z,1.70
2019-01-28T08:26:33.645Z,1.74
2019-01-28T08:28:40.106Z,1.77
2019-01-28T08:30:46.768Z,1.77
2019-01-28T08:32:53.546Z,1.73
2019-01-28T08:35:00.726Z,1.71
2019-01-28T08:37:06.972Z,1.73
2019-01-28T08:39:13.528Z,1.79
2019-01-28T08:41:19.865Z,1.85
2019-01-28T08:43:26.471Z,1.88
2019-01-28T08:45:32.665Z,1.90
2019-01-28T08:47:40.031Z,1.93
2019-01-28T08:49:47.767Z,1.93
2019-01-28T08:51:53.794Z,2.02
2019-01-28T08:54:00.084Z,2.08
2019-01-28T08:56:06.426Z,2.12
2019-01-28T08:58:13.646Z,2.15
2019-01-28T09:00:23.128Z,2.19
2019-01-28T09:02:29.586Z,2.13
2019-01-28T09:04:36.406Z,2.11
2019-01-28T09:06:42.725Z,2.11
2019-01-28T09:08:49.107Z,2.18
2019-01-28T09:10:55.566Z,2.15
2019-01-28T09:13:02.226Z,2.18
2019-01-28T09:15:13.293Z,2.12
2019-01-28T09:17:19.665Z,2.09
2019-01-28T09:19:26.066Z,2.14
2019-01-28T09:21:32.827Z,2.15
2019-01-28T09:23:39.425Z,2.17
2019-01-28T09:25:47.325Z,2.14
2019-01-28T09:27:53.667Z,2.19
2019-01-28T09:30:00.049Z,2.17
2019-01-28T09:32:07.846Z,2.18
2019-01-28T09:34:14.390Z,2.23
2019-01-28T09:36:22.587Z,2.16
2019-01-28T09:38:28.805Z,2.20
2019-01-28T09:40:38.727Z,2.10
2019-01-28T09:42:45.434Z,2.10
2019-01-28T09:44:52.327Z,2.12
2019-01-28T09:46:59.566Z,2.07
2019-01-28T09:49:05.712Z,2.07
2019-01-28T09:51:12.346Z,2.13
2019-01-28T09:53:18.866Z,2.19
2019-01-28T09:55:25.234Z,2.27
2019-01-28T09:57:31.425Z,2.35
2019-01-28T09:59:38.108Z,2.41
2019-01-28T10:01:44.827Z,2.48
2019-01-28T10:03:51.186Z,2.49
2019-01-28T10:05:58.346Z,2.46
2019-01-28T10:08:05.188Z,2.58
2019-01-28T10:10:15.986Z,2.63
2019-01-28T10:12:22.267Z,2.70
2019-01-28T10:14:28.734Z,2.77
2019-01-28T10:16:40.828Z,2.82
2019-01-28T10:18:52.526Z,2.88
2019-01-28T10:20:59.345Z,2.86
2019-01-28T10:23:05.829Z,2.87
2019-01-28T10:25:12.046Z,2.87
2019-01-28T10:27:19.867Z,2.88
2019-01-28T10:29:27.666Z,2.89
2019-01-28T10:31:35.089Z,2.81
2019-01-28T10:33:43.006Z,2.71
2019-01-28T10:35:49.487Z,2.60
2019-01-28T10:37:56.107Z,2.56
2019-01-28T10:40:03.007Z,2.54
2019-01-28T10:42:10.206Z,2.59
2019-01-28T10:44:17.949Z,2.58
2019-01-28T10:46:24.486Z,2.61
2019-01-28T10:48:31.026Z,2.64
2019-01-28T10:50:38.466Z,2.60
2019-01-28T10:52:45.734Z,2.60
2019-01-28T10:54:53.792Z,2.60
2019-01-28T10:57:02.547Z,2.62
2019-01-28T10:59:10.405Z,2.65
2019-01-28T11:01:19.749Z,2.67
2019-01-28T11:03:29.226Z,2.68
2019-01-28T11:05:36.895Z,2.66
2019-01-28T11:07:44.145Z,2.72
2019-01-28T11:09:50.524Z,2.78
2019-01-28T11:11:56.833Z,2.79
2019-01-28T11:14:03.050Z,2.79
2019-01-28T11:16:10.228Z,2.75
2019-01-28T11:18:20.557Z,2.77
2019-01-28T11:20:26.731Z,2.80
2019-01-28T11:22:32.916Z,2.74
2019-01-28T11:24:39.290Z,2.78
2019-01-28T11:26:47.112Z,2.78
2019-01-28T11:28:53.771Z,2.74
2019-01-28T11:31:01.352Z,2.69
2019-01-28T11:33:08.308Z,2.63
2019-01-28T11:35:15.838Z,2.62
2019-01-28T11:37:22.432Z,2.60
2019-01-28T11:39:28.773Z,2.63
2019-01-28T11:41:36.049Z,2.63
2019-01-28T11:43:42.490Z,2.63
2019-01-28T11:46:00.448Z,2.67
2019-01-28T11:48:09.061Z,2.59
2019-01-28T11:50:18.369Z,2.60
2019-01-28T11:52:24.869Z,2.59
2019-01-28T11:54:31.190Z,2.63
2019-01-28T11:56:38.633Z,2.63
2019-01-28T11:58:46.609Z,2.69
2019-01-28T12:00:58.293Z,2.75
2019-01-28T12:03:04.668Z,2.81
2019-01-28T12:05:12.209Z,2.80
2019-01-28T12:07:18.669Z,2.84
2019-01-28T12:09:25.289Z,2.91
2019-01-28T12:11:33.488Z,2.88
2019-01-28T12:13:41.448Z,2.87
2019-01-28T12:15:47.731Z,2.86
2019-01-28T12:17:54.388Z,2.92
2019-01-28T12:20:01.943Z,2.96
2019-01-28T12:22:09.252Z,2.95
2019-01-28T12:24:16.232Z,2.96
2019-01-28T12:26:22.999Z,3.03
2019-01-28T12:28:29.469Z,3.12
2019-01-28T12:30:39.291Z,3.17
2019-01-28T12:32:47.455Z,3.26
2019-01-28T12:34:54.313Z,3.23
2019-01-28T12:37:01.330Z,3.21
2019-01-28T12:39:08.991Z,3.21
2019-01-28T12:41:17.484Z,3.21
2019-01-28T12:43:23.949Z,3.20
2019-01-28T12:45:30.793Z,3.24
2019-01-28T12:47:43.829Z,3.26
2019-01-28T12:49:53.988Z,3.22
2019-01-28T12:52:00.808Z,3.24
2019-01-28T12:54:08.868Z,3.25
2019-01-28T12:56:15.617Z,3.30
2019-01-28T12:58:22.393Z,3.31
2019-01-28T13:00:34.450Z,3.31
2019-01-28T13:02:40.991Z,3.29
2019-01-28T13:04:47.148Z,3.27
2019-01-28T13:06:54.408Z,3.23
2019-01-28T13:09:01.017Z,3.25
2019-01-28T13:11:09.348Z,3.24
2019-01-28T13:13:15.509Z,3.23
2019-01-28T13:15:25.988Z,3.25
2019-01-28T13:17:33.309Z,3.26
2019-01-28T13:19:40.184Z,3.25
2019-01-28T13:21:46.567Z,3.30
2019-01-28T13:23:54.451Z,3.35
2019-01-28T13:26:02.528Z,3.33
2019-01-28T13:28:10.233Z,3.35
2019-01-28T13:30:31.028Z,3.38
2019-01-28T13:32:38.163Z,3.36
2019-01-28T13:34:45.448Z,3.36
2019-01-28T13:36:52.367Z,3.40
2019-01-28T13:38:58.729Z,3.38
2019-01-28T13:41:05.368Z,3.30
2019-01-28T13:43:12.369Z,3.29
2019-01-28T13:45:21.549Z,3.24
2019-01-28T13:47:28.889Z,3.13
2019-01-28T13:49:38.437Z,3.12
2019-01-28T13:51:44.069Z,3.07
2019-01-28T13:53:51.970Z,3.04
2019-01-28T13:55:58.229Z,2.99
2019-01-28T13:58:04.929Z,2.93
2019-01-28T14:00:24.229Z,2.85
2019-01-28T14:02:30.690Z,2.82
2019-01-28T14:04:40.054Z,2.75
2019-01-28T14:06:46.928Z,2.71
2019-01-28T14:08:53.208Z,2.68
2019-01-28T14:10:59.550Z,2.61
2019-01-28T14:13:06.048Z,2.56
2019-01-28T14:15:17.008Z,2.52
2019-01-28T14:17:25.448Z,2.49
2019-01-28T14:19:31.808Z,2.44
2019-01-28T14:21:39.408Z,2.39
2019-01-28T14:23:45.930Z,2.36
2019-01-28T14:25:52.290Z,2.31
2019-01-28T14:31:19.392Z,2.28
2019-01-28T14:33:26.988Z,2.24
2019-01-28T14:35:33.649Z,2.20
2019-01-28T14:37:40.209Z,2.19
2019-01-28T14:39:46.808Z,2.18
2019-01-28T14:41:52.989Z,2.17
2019-01-28T14:43:59.468Z,2.16
2019-01-28T14:46:05.975Z,2.15
2019-01-28T14:48:13.068Z,2.12
2019-01-28T14:50:24.776Z,2.11
2019-01-28T14:52:31.487Z,2.10
2019-01-28T14:54:39.108Z,2.08
2019-01-28T14:56:45.812Z,2.08
2019-01-28T14:58:53.468Z,2.08
2019-01-28T15:01:00.149Z,2.09
2019-01-28T15:03:06.836Z,2.10
2019-01-28T15:05:13.968Z,2.10
2019-01-28T15:07:21.691Z,2.09
2019-01-28T15:09:28.270Z,2.03
2019-01-28T15:11:35.007Z,2.00
2019-01-28T15:13:42.989Z,2.00
2019-01-28T15:15:49.488Z,1.97
2019-01-28T15:17:57.010Z,1.96
2019-01-28T15:20:03.831Z,1.93
2019-01-28T15:22:10.528Z,1.92
2019-01-28T15:24:16.768Z,1.89
2019-01-28T15:26:23.112Z,1.85
2019-01-28T15:28:29.608Z,1.85
2019-01-28T15:30:36.437Z,1.81
2019-01-28T15:32:54.784Z,1.77
2019-01-28T15:35:01.248Z,1.76
2019-01-28T15:37:08.208Z,1.74
2019-01-28T15:39:14.467Z,1.73
2019-01-28T15:41:22.193Z,1.73
2019-01-28T15:43:29.369Z,1.72
2019-01-28T15:45:39.102Z,1.72
2019-01-28T15:47:45.468Z,1.70
2019-01-28T15:49:52.735Z,1.70
2019-01-28T15:51:59.088Z,1.69
2019-01-28T15:54:08.110Z,1.68
2019-01-28T15:56:15.129Z,1.65
2019-01-28T15:58:21.368Z,1.65
2019-01-28T16:00:36.689Z,1.65
2019-01-28T16:02:44.839Z,1.64
2019-01-28T16:04:51.237Z,1.61
2019-01-28T16:06:57.549Z,1.57
2019-01-28T16:09:05.349Z,1.53
2019-01-28T16:11:12.417Z,1.50
2019-01-28T16:13:18.929Z,1.47
2019-01-28T16:15:36.008Z,1.45
2019-01-28T16:17:42.686Z,1.43
2019-01-28T16:19:49.089Z,1.40
2019-01-28T16:21:56.373Z,1.37
2019-01-28T16:24:03.529Z,1.33
2019-01-28T16:26:10.009Z,1.31
2019-01-28T16:28:16.651Z,1.27
2019-01-28T16:30:28.609Z,1.25
2019-01-28T16:32:35.049Z,1.25
2019-01-28T16:34:56.350Z,1.24
2019-01-28T16:37:03.009Z,1.24
2019-01-28T16:39:09.748Z,1.26
2019-01-28T16:41:16.628Z,1.25
2019-01-28T16:43:23.748Z,1.26
2019-01-28T16:45:31.551Z,1.26
2019-01-28T16:47:38.008Z,1.27
2019-01-28T16:49:44.448Z,1.26
2019-01-28T16:51:51.089Z,1.25
2019-01-28T16:53:58.076Z,1.26
2019-01-28T16:56:05.116Z,1.27
2019-01-28T16:58:13.280Z,1.25
2019-01-28T17:00:29.568Z,1.24
2019-01-28T17:02:36.449Z,1.24
2019-01-28T17:04:43.030Z,1.26
2019-01-28T17:06:49.670Z,1.28
2019-01-28T17:09:01.009Z,1.28
2019-01-28T17:11:09.636Z,1.27
2019-01-28T17:13:19.770Z,1.28
2019-01-28T17:15:29.008Z,1.28
2019-01-28T17:17:35.996Z,1.28
2019-01-28T17:19:42.782Z,1.28
2019-01-28T17:21:49.549Z,1.29
2019-01-28T17:23:56.397Z,1.30
2019-01-28T17:26:03.258Z,1.29
2019-01-28T17:28:09.968Z,1.30
2019-01-28T17:30:26.630Z,1.29
2019-01-28T17:32:33.029Z,1.30
2019-01-28T17:34:42.717Z,1.31
2019-01-28T17:39:24.445Z,1.28
2019-01-28T17:41:30.951Z,1.27
2019-01-28T17:43:37.903Z,1.26
2019-01-28T17:45:44.769Z,1.28
2019-01-28T17:47:51.688Z,1.28
2019-01-28T17:52:27.488Z,1.29
2019-01-28T17:54:34.449Z,1.29
2019-01-28T17:56:42.048Z,1.30
2019-01-28T17:58:49.181Z,1.31
2019-01-28T18:00:56.910Z,1.30
2019-01-28T18:03:04.249Z,1.31
2019-01-28T18:05:11.708Z,1.31
2019-01-28T18:07:19.188Z,1.32
2019-01-28T18:09:26.489Z,1.32
2019-01-28T18:11:34.008Z,1.32
2019-01-28T18:13:40.849Z,1.32
2019-01-28T18:15:47.629Z,1.33
2019-01-28T18:18:01.528Z,1.33
2019-01-28T18:20:16.110Z,1.33
2019-01-28T18:22:23.152Z,1.32
2019-01-28T18:24:29.949Z,1.35
2019-01-28T18:26:36.501Z,1.35
2019-01-28T18:28:43.369Z,1.34
2019-01-28T18:30:51.270Z,1.36
2019-01-28T18:32:58.468Z,1.37
2019-01-28T18:35:07.834Z,1.40
2019-01-28T18:37:15.190Z,1.41
2019-01-28T18:39:22.590Z,1.39
2019-01-28T18:41:29.989Z,1.42
2019-01-28T18:43:37.288Z,1.43
2019-01-28T18:45:46.009Z,1.43
2019-01-28T18:47:52.868Z,1.42
2019-01-28T18:49:59.637Z,1.44
2019-01-28T18:52:06.368Z,1.45
2019-01-28T18:54:13.389Z,1.47
2019-01-28T18:56:19.948Z,1.48
2019-01-28T18:58:27.488Z,1.48
2019-01-28T19:00:35.737Z,1.48
2019-01-28T19:02:42.528Z,1.50
2019-01-28T19:04:50.848Z,1.50
2019-01-28T19:07:02.022Z,1.52
2019-01-28T19:09:10.988Z,1.51
2019-01-28T19:11:19.632Z,1.54
2019-01-28T19:13:34.068Z,1.52
2019-01-28T19:15:42.608Z,1.56
2019-01-28T19:17:54.015Z,1.57
2019-01-28T19:20:23.108Z,1.55
2019-01-28T19:22:29.949Z,1.56
2019-01-28T19:24:36.850Z,1.52
2019-01-28T19:26:45.049Z,1.52
2019-01-28T19:28:52.048Z,1.54
2019-01-28T19:30:58.871Z,1.54
2019-01-28T19:33:05.708Z,1.51
2019-01-28T19:35:12.677Z,1.50
2019-01-28T19:37:20.569Z,1.52
2019-01-28T19:39:27.427Z,1.50
2019-01-28T19:41:34.848Z,1.50
2019-01-28T19:43:41.835Z,1.49
2019-01-28T19:45:48.728Z,1.50
2019-01-28T19:47:55.770Z,1.50
2019-01-28T19:50:02.728Z,1.51
2019-01-28T19:52:10.055Z,1.54
2019-01-28T19:54:16.816Z,1.55
2019-01-28T19:56:23.675Z,1.58
2019-01-28T19:58:31.040Z,1.59
2019-01-28T20:00:37.589Z,1.57
2019-01-28T20:02:44.473Z,1.57
2019-01-28T20:04:51.128Z,1.59
2019-01-28T20:06:57.728Z,1.58
2019-01-28T20:09:06.309Z,1.57
2019-01-28T20:11:14.956Z,1.55
2019-01-28T20:13:21.629Z,1.56
2019-01-28T20:15:29.216Z,1.54
2019-01-28T20:17:36.570Z,1.54
2019-01-28T20:19:43.709Z,1.54
2019-01-28T20:21:50.548Z,1.54
2019-01-28T20:23:57.630Z,1.55
2019-01-28T20:26:04.497Z,1.54
2019-01-28T20:28:11.464Z,1.52
2019-01-28T20:30:27.012Z,1.52
2019-01-28T20:32:34.928Z,1.54
2019-01-28T20:34:43.484Z,1.52
2019-01-28T20:36:50.349Z,1.50
2019-01-28T20:38:58.269Z,1.49
2019-01-28T20:41:06.689Z,1.49
2019-01-28T20:43:14.069Z,1.50
2019-01-28T20:45:29.690Z,1.50
2019-01-28T20:47:39.210Z,1.51
2019-01-28T20:49:47.389Z,1.52
2019-01-28T20:51:54.481Z,1.54
2019-01-28T20:54:01.360Z,1.55
2019-01-28T20:56:09.251Z,1.54
2019-01-28T20:58:16.450Z,1.53
2019-01-28T21:00:29.024Z,1.51
2019-01-28T21:02:36.446Z,1.47
2019-01-28T21:04:43.463Z,1.45
2019-01-28T21:06:50.331Z,1.42
2019-01-28T21:08:57.729Z,1.38
2019-01-28T21:11:05.028Z,1.37
2019-01-28T21:13:11.912Z,1.34
2019-01-28T21:15:19.656Z,1.30
2019-01-28T21:17:27.461Z,1.27
2019-01-28T21:19:34.481Z,1.23
2019-01-28T21:21:41.940Z,1.23
2019-01-28T21:23:51.551Z,1.21
2019-01-28T21:25:58.913Z,1.17
2019-01-28T21:28:06.171Z,1.13
2019-01-28T21:30:22.471Z,1.06
2019-01-28T21:32:29.373Z,1.01
2019-01-28T21:34:35.991Z,0.95
2019-01-28T21:36:50.191Z,0.91
2019-01-28T21:38:56.672Z,0.86
2019-01-28T21:41:03.171Z,0.84
2019-01-28T21:43:09.738Z,0.79
2019-01-28T21:45:16.911Z,0.79
2019-01-28T21:47:23.679Z,0.81
2019-01-28T21:49:30.427Z,0.82
2019-01-28T21:51:38.450Z,0.84
2019-01-28T21:53:44.851Z,0.86
2019-01-28T21:55:51.410Z,0.87
2019-01-28T21:57:57.951Z,0.86
2019-01-28T22:00:06.198Z,0.83
2019-01-28T22:02:13.733Z,0.79
2019-01-28T22:04:20.051Z,0.76
2019-01-28T22:06:26.413Z,0.70
2019-01-28T22:08:32.971Z,0.65
2019-01-28T22:10:39.570Z,0.61
2019-01-28T22:12:45.974Z,0.55
2019-01-28T22:14:52.230Z,0.48
2019-01-28T22:16:58.830Z,0.43
2019-01-28T22:19:05.152Z,0.41
2019-01-28T22:21:12.951Z,0.38
2019-01-28T22:23:22.770Z,0.34
2019-01-28T22:25:34.092Z,0.31
2019-01-28T22:27:41.711Z,0.28
2019-01-28T22:29:52.090Z,0.25
2019-01-28T22:31:58.659Z,0.26
2019-01-28T22:34:05.131Z,0.26
2019-01-28T22:36:11.850Z,0.25
2019-01-28T22:38:18.331Z,0.26
2019-01-28T22:40:24.788Z,0.26
2019-01-28T22:42:32.749Z,0.25
2019-01-28T22:44:39.092Z,0.26
2019-01-28T22:46:45.469Z,0.27
2019-01-28T22:48:52.529Z,0.29
2019-01-28T22:50:58.828Z,0.31
2019-01-28T22:53:07.018Z,0.34
2019-01-28T22:55:20.497Z,0.38
2019-01-28T22:57:28.090Z,0.41
2019-01-28T22:59:34.609Z,0.44
2019-01-28T23:01:41.273Z,0.48
2019-01-28T23:03:48.209Z,0.52
2019-01-28T23:05:54.969Z,0.54
2019-01-28T23:08:02.611Z,0.57
2019-01-28T23:10:09.861Z,0.57
2019-01-28T23:12:16.408Z,0.60
2019-01-28T23:14:23.408Z,0.59
2019-01-28T23:16:30.448Z,0.59
2019-01-28T23:18:36.769Z,0.58
2019-01-28T23:20:44.088Z,0.57
2019-01-28T23:22:50.475Z,0.56
2019-01-28T23:24:56.969Z,0.52
2019-01-28T23:27:03.989Z,0.48
2019-01-28T23:29:11.531Z,0.45
2019-01-28T23:31:17.869Z,0.42
2019-01-28T23:33:25.748Z,0.39
2019-01-28T23:35:34.069Z,0.38
2019-01-28T23:44:07.809Z,0.32
2019-01-28T23:46:18.491Z,0.31
2019-01-28T23:48:30.868Z,0.32
2019-01-28T23:50:38.488Z,0.31
2019-01-28T23:52:44.788Z,0.32
2019-01-28T23:54:51.059Z,0.30
2019-01-28T23:56:58.249Z,0.30
2019-01-28T23:59:05.868Z,0.28
